Terminal Aerodrome Forecast
Issued by NWS

Home | Current Version | Previous Version | Text Only | Print | Product List | Glossary On
Versions: 1 2 3 4 5 6 7 8 9 10 11 12 13 14 15 16 17 18 19 20
000
FTUS43 KAPX 031132
TAFPLN
TAF
KPLN 031132Z 0312/0412 00000KT P6SM SCT022 OVC080 WS020/22020KT
      TEMPO 0312/0314 1 1/2SM -SN BKN009 OVC022
     FM031400 15004KT 4SM -SN SCT015 BKN028 OVC040 WS020/20024KT
     FM031700 17005KT 3/4SM -SN BKN005 OVC015 WS020/17027KT
     FM032100 19005KT 2SM -FZDZSN OVC009
     FM040000 22006KT P6SM OVC012
     FM040200 27008KT P6SM BKN028
     FM040500 28010G18KT P6SM SCT025 BKN035=

USA.gov is the U.S. government's official web portal to all federal, state and local government web resources and services.